createdAt,value
2019-04-25T00:01:17.329Z,0.70
2019-04-25T00:03:46.905Z,0.80
2019-04-25T00:06:17.682Z,1.10
2019-04-25T00:08:49.136Z,0.80
2019-04-25T00:11:19.370Z,0.80
2019-04-25T00:13:48.742Z,0.87
2019-04-25T00:16:21.622Z,0.80
2019-04-25T00:18:54.693Z,0.87
2019-04-25T00:21:33.865Z,0.63
2019-04-25T00:24:08.574Z,0.60
2019-04-25T00:26:46.306Z,0.93
2019-04-25T00:29:16.834Z,0.80
2019-04-25T00:31:46.167Z,0.90
2019-04-25T00:34:15.809Z,1.00
2019-04-25T00:36:45.610Z,0.97
2019-04-25T00:39:15.184Z,1.07
2019-04-25T00:41:46.260Z,1.20
2019-04-25T00:44:15.718Z,1.00
2019-04-25T00:46:49.087Z,1.00
2019-04-25T00:49:17.360Z,1.10
2019-04-25T00:51:46.945Z,0.90
2019-04-25T00:54:16.167Z,0.90
2019-04-25T00:56:47.914Z,0.77
2019-04-25T00:59:22.376Z,1.10
2019-04-25T01:02:11.488Z,0.90
2019-04-25T01:04:41.936Z,0.90
2019-04-25T01:07:12.658Z,0.83
2019-04-25T01:09:43.466Z,0.80
2019-04-25T01:12:14.908Z,0.90
2019-04-25T01:14:45.687Z,1.07
2019-04-25T01:17:16.138Z,0.80
2019-04-25T01:19:47.415Z,1.00
2019-04-25T01:22:16.971Z,1.00
2019-04-25T01:24:46.178Z,1.10
2019-04-25T01:27:15.711Z,0.80
2019-04-25T01:29:46.367Z,0.60
2019-04-25T01:32:19.041Z,1.00
2019-04-25T01:34:58.384Z,0.90
2019-04-25T01:37:44.403Z,1.37
2019-04-25T01:40:31.184Z,1.07
2019-04-25T01:43:13.815Z,0.80
2019-04-25T01:45:43.822Z,0.97
2019-04-25T01:48:13.739Z,0.90
2019-04-25T01:50:43.788Z,1.00
2019-04-25T01:53:14.587Z,1.00
2019-04-25T01:55:53.628Z,1.10
2019-04-25T01:58:16.454Z,0.93
2019-04-25T02:00:47.869Z,0.70
2019-04-25T02:03:17.393Z,0.93
2019-04-25T02:05:46.993Z,0.97
2019-04-25T02:08:17.416Z,1.00
2019-04-25T02:10:50.765Z,0.77
2019-04-25T02:13:21.219Z,0.97
2019-04-25T02:15:50.638Z,1.03
2019-04-25T02:18:28.054Z,1.00
2019-04-25T02:21:04.370Z,1.10
2019-04-25T02:23:34.105Z,1.10
2019-04-25T02:26:15.235Z,1.10
2019-04-25T02:28:35.518Z,0.87
2019-04-25T02:31:08.682Z,1.03
2019-04-25T02:33:36.358Z,1.10
2019-04-25T02:36:08.590Z,1.10
2019-04-25T02:38:37.755Z,1.00
2019-04-25T02:41:09.155Z,1.10
2019-04-25T02:43:38.734Z,1.37
2019-04-25T02:46:31.631Z,1.00
2019-04-25T02:49:35.892Z,0.90
2019-04-25T02:52:13.096Z,1.30
2019-04-25T02:54:44.998Z,1.20
2019-04-25T02:57:14.874Z,1.13
2019-04-25T02:59:45.142Z,1.20
2019-04-25T03:02:15.666Z,1.07
2019-04-25T03:04:44.967Z,1.10
2019-04-25T03:07:17.577Z,1.27
2019-04-25T03:09:46.539Z,0.97
2019-04-25T03:12:29.824Z,1.20
2019-04-25T03:14:47.328Z,1.13
2019-04-25T03:17:16.577Z,1.30
2019-04-25T03:20:11.977Z,1.50
2019-04-25T03:22:44.516Z,1.37
2019-04-25T03:25:17.323Z,1.23
2019-04-25T03:27:45.183Z,1.77
2019-04-25T03:30:17.923Z,1.40
2019-04-25T03:32:45.930Z,1.33
2019-04-25T03:35:15.134Z,1.30
2019-04-25T03:37:45.347Z,1.30
2019-04-25T03:40:14.663Z,1.50
2019-04-25T03:42:44.200Z,1.40
2019-04-25T03:45:14.663Z,1.50
2019-04-25T03:47:44.041Z,1.67
2019-04-25T03:50:14.797Z,1.63
2019-04-25T03:52:44.594Z,1.50
2019-04-25T03:55:14.482Z,1.30
2019-04-25T03:57:44.383Z,1.30
2019-04-25T04:00:15.331Z,1.60
2019-04-25T04:02:46.929Z,1.57
2019-04-25T04:05:16.180Z,1.37
2019-04-25T04:07:46.351Z,1.60
2019-04-25T04:10:15.597Z,1.57
2019-04-25T04:12:44.810Z,1.60
2019-04-25T04:15:15.800Z,1.33
2019-04-25T04:17:57.235Z,1.90
2019-04-25T04:20:44.110Z,1.90
2019-04-25T04:23:18.341Z,1.60
2019-04-25T04:25:48.063Z,1.40
2019-04-25T04:28:18.811Z,1.40
2019-04-25T04:30:48.042Z,1.30
2019-04-25T04:33:30.011Z,1.63
2019-04-25T04:35:48.598Z,1.00
2019-04-25T04:38:19.170Z,1.23
2019-04-25T04:40:48.893Z,1.40
2019-04-25T04:43:18.423Z,1.40
2019-04-25T04:45:48.805Z,1.40
2019-04-25T04:48:18.837Z,1.30
2019-04-25T04:50:48.172Z,1.70
2019-04-25T04:53:17.390Z,1.40
2019-04-25T04:55:50.036Z,1.20
2019-04-25T04:58:26.597Z,1.50
2019-04-25T05:00:58.292Z,1.30
2019-04-25T05:03:49.643Z,1.17
2019-04-25T05:06:25.158Z,1.23
2019-04-25T05:08:58.322Z,1.30
2019-04-25T05:11:27.869Z,1.40
2019-04-25T05:13:59.430Z,1.20
2019-04-25T05:16:29.672Z,1.40
2019-04-25T05:18:59.740Z,1.70
2019-04-25T05:21:31.476Z,1.83
2019-04-25T05:24:00.705Z,2.90
2019-04-25T05:26:29.937Z,1.93
2019-04-25T05:29:00.231Z,4.40
2019-04-25T05:31:41.101Z,6.60
2019-04-25T05:34:14.551Z,2.70
2019-04-25T05:36:43.892Z,2.00
2019-04-25T05:39:16.338Z,4.13
2019-04-25T05:42:09.566Z,3.17
2019-04-25T05:44:40.374Z,3.30
2019-04-25T05:47:09.605Z,4.37
2019-04-25T05:49:38.806Z,3.00
2019-04-25T05:52:08.302Z,3.07
2019-04-25T05:54:37.526Z,4.77
2019-04-25T05:57:06.755Z,7.60
2019-04-25T05:59:35.991Z,4.50
2019-04-25T06:02:05.356Z,2.70
2019-04-25T06:04:35.261Z,2.50
2019-04-25T06:07:06.148Z,2.40
2019-04-25T06:09:54.701Z,2.47
2019-04-25T06:12:30.773Z,2.17
2019-04-25T06:15:01.365Z,1.93
2019-04-25T06:17:38.441Z,1.80
2019-04-25T06:20:10.152Z,1.50
2019-04-25T06:22:59.259Z,1.70
2019-04-25T06:25:34.775Z,1.43
2019-04-25T06:28:03.772Z,1.77
2019-04-25T06:30:33.294Z,1.77
2019-04-25T06:33:05.392Z,1.87
2019-04-25T06:35:35.969Z,1.70
2019-04-25T06:38:05.526Z,1.73
2019-04-25T06:40:35.016Z,1.47
2019-04-25T06:43:04.549Z,1.70
2019-04-25T06:45:55.657Z,1.63
2019-04-25T06:48:38.218Z,1.70
2019-04-25T06:51:07.872Z,1.63
2019-04-25T06:53:38.254Z,1.70
2019-04-25T06:56:07.480Z,1.67
2019-04-25T06:58:37.199Z,2.67
2019-04-25T07:01:08.980Z,1.60
2019-04-25T07:03:38.349Z,1.60
2019-04-25T07:06:10.077Z,1.60
2019-04-25T07:08:39.826Z,1.77
2019-04-25T07:11:11.316Z,1.50
2019-04-25T07:13:40.951Z,1.37
2019-04-25T07:16:11.373Z,1.60
2019-04-25T07:18:40.969Z,1.40
2019-04-25T07:21:11.418Z,1.57
2019-04-25T07:23:40.686Z,1.47
2019-04-25T07:26:16.856Z,1.60
2019-04-25T07:29:20.413Z,1.40
2019-04-25T07:32:14.451Z,1.20
2019-04-25T07:34:43.958Z,1.40
2019-04-25T07:37:13.320Z,1.37
2019-04-25T07:39:44.196Z,1.25
2019-04-25T07:42:14.148Z,1.30
2019-04-25T07:44:51.651Z,1.42
2019-04-25T07:47:17.341Z,1.50
2019-04-25T07:49:46.575Z,1.60
2019-04-25T07:52:15.824Z,1.45
2019-04-25T07:54:45.377Z,1.40
2019-04-25T07:57:14.907Z,1.17
2019-04-25T07:59:44.165Z,1.45
2019-04-25T08:02:13.708Z,1.67
2019-04-25T08:04:44.199Z,1.67
2019-04-25T08:07:14.252Z,1.47
2019-04-25T08:09:44.361Z,1.65
2019-04-25T08:12:13.710Z,1.60
2019-04-25T08:14:54.890Z,1.47
2019-04-25T08:17:41.722Z,2.10
2019-04-25T08:20:15.243Z,1.87
2019-04-25T08:22:55.675Z,2.87
2019-04-25T08:25:18.286Z,1.60
2019-04-25T08:27:47.513Z,1.70
2019-04-25T08:30:16.758Z,2.10
2019-04-25T08:32:46.660Z,2.10
2019-04-25T08:35:16.177Z,2.25
2019-04-25T08:37:45.834Z,2.00
2019-04-25T08:40:16.003Z,2.05
2019-04-25T08:42:45.245Z,1.67
2019-04-25T08:45:14.996Z,1.80
2019-04-25T08:47:44.207Z,1.62
2019-04-25T08:50:42.825Z,1.70
2019-04-25T08:53:15.283Z,1.60
2019-04-25T08:56:07.811Z,1.60
2019-04-25T08:59:07.969Z,1.75
2019-04-25T09:01:48.253Z,1.80
2019-04-25T09:04:25.917Z,1.80
2019-04-25T09:06:55.447Z,1.65
2019-04-25T09:09:24.766Z,1.80
2019-04-25T09:11:54.462Z,1.52
2019-04-25T09:14:24.741Z,2.25
2019-04-25T09:16:53.970Z,1.80
2019-04-25T09:19:24.148Z,1.80
2019-04-25T09:21:53.514Z,1.72
2019-04-25T09:24:24.417Z,1.80
2019-04-25T09:26:54.120Z,1.70
2019-04-25T09:29:23.580Z,1.55
2019-04-25T09:31:53.755Z,1.42
2019-04-25T09:34:23.906Z,1.77
2019-04-25T09:36:55.446Z,1.60
2019-04-25T09:39:46.995Z,1.27
2019-04-25T09:42:16.567Z,1.30
2019-04-25T09:45:10.556Z,1.42
2019-04-25T09:47:41.301Z,1.37
2019-04-25T09:50:16.426Z,1.20
2019-04-25T09:52:47.043Z,1.50
2019-04-25T09:55:29.958Z,1.42
2019-04-25T09:58:24.106Z,1.20
2019-04-25T10:00:57.497Z,1.20
2019-04-25T10:03:26.851Z,1.22
2019-04-25T10:05:58.386Z,1.30
2019-04-25T10:08:27.649Z,1.45
2019-04-25T10:10:57.086Z,1.30
2019-04-25T10:13:28.579Z,1.45
2019-04-25T10:16:07.241Z,1.30
2019-04-25T10:18:39.370Z,1.30
2019-04-25T10:21:14.311Z,1.32
2019-04-25T10:23:45.361Z,1.40
2019-04-25T10:26:16.131Z,1.25
2019-04-25T10:28:47.548Z,1.30
2019-04-25T10:31:16.828Z,1.27
2019-04-25T10:33:47.007Z,1.40
2019-04-25T10:36:16.722Z,1.42
2019-04-25T10:39:02.304Z,1.30
2019-04-25T10:41:19.441Z,1.20
2019-04-25T10:43:50.470Z,1.40
2019-04-25T10:46:21.780Z,1.30
2019-04-25T10:48:54.103Z,1.50
2019-04-25T10:51:23.982Z,1.22
2019-04-25T10:53:55.028Z,1.22
2019-04-25T10:56:24.441Z,1.10
2019-04-25T10:58:54.992Z,1.40
2019-04-25T11:01:24.644Z,1.37
2019-04-25T11:04:17.970Z,1.12
2019-04-25T11:06:49.322Z,1.35
2019-04-25T11:09:27.320Z,1.42
2019-04-25T11:11:58.251Z,1.00
2019-04-25T11:14:31.568Z,1.50
2019-04-25T11:17:01.714Z,1.50
2019-04-25T11:19:31.125Z,1.37
2019-04-25T11:22:00.363Z,1.42
2019-04-25T11:24:34.625Z,1.27
2019-04-25T11:27:05.569Z,1.37
2019-04-25T11:29:34.815Z,1.17
2019-04-25T11:32:05.453Z,1.50
2019-04-25T11:34:34.797Z,1.17
2019-04-25T11:37:05.907Z,1.20
2019-04-25T11:39:40.474Z,1.00
2019-04-25T11:42:16.732Z,1.00
2019-04-25T11:44:48.065Z,1.07
2019-04-25T11:47:17.802Z,1.10
2019-04-25T11:49:47.846Z,1.32
2019-04-25T11:52:27.308Z,1.12
2019-04-25T11:54:50.088Z,1.32
2019-04-25T11:57:24.475Z,1.10
2019-04-25T11:59:54.225Z,1.30
2019-04-25T12:02:24.004Z,1.10
2019-04-25T12:04:57.298Z,1.32
2019-04-25T12:07:26.994Z,1.30
2019-04-25T12:09:56.225Z,1.12
2019-04-25T12:12:25.459Z,1.35
2019-04-25T12:14:55.385Z,1.17
2019-04-25T12:17:26.610Z,1.20
2019-04-25T12:19:57.499Z,1.30
2019-04-25T12:22:26.806Z,1.30
2019-04-25T12:24:56.371Z,1.07
2019-04-25T12:27:25.825Z,1.20
2019-04-25T12:29:55.060Z,0.88
2019-04-25T12:32:26.857Z,1.10
2019-04-25T12:34:56.173Z,1.00
2019-04-25T12:37:25.469Z,1.07
2019-04-25T12:39:54.723Z,1.07
2019-04-25T12:42:24.288Z,1.10
2019-04-25T12:45:04.187Z,1.00
2019-04-25T12:47:34.409Z,1.00
2019-04-25T12:50:05.217Z,0.93
2019-04-25T12:52:34.466Z,1.20
2019-04-25T12:55:04.238Z,1.10
2019-04-25T12:57:33.443Z,1.00
2019-04-25T13:00:04.167Z,1.10
2019-04-25T13:02:36.260Z,1.20
2019-04-25T13:05:07.327Z,1.10
2019-04-25T13:07:37.878Z,1.07
2019-04-25T13:10:08.131Z,1.20
2019-04-25T13:12:39.953Z,0.95
2019-04-25T13:15:09.848Z,1.30
2019-04-25T13:17:39.486Z,1.30
2019-04-25T13:20:09.896Z,1.10
2019-04-25T13:22:39.273Z,1.07
2019-04-25T13:25:11.013Z,0.95
2019-04-25T13:27:49.463Z,1.10
2019-04-25T13:30:41.328Z,1.05
2019-04-25T13:33:35.329Z,1.50
2019-04-25T13:36:10.991Z,1.30
2019-04-25T13:38:40.289Z,1.10
2019-04-25T13:41:09.505Z,1.10
2019-04-25T13:43:38.901Z,1.20
2019-04-25T13:46:10.809Z,1.00
2019-04-25T13:48:41.158Z,0.88
2019-04-25T13:51:10.371Z,0.93
2019-04-25T13:53:43.586Z,1.12
2019-04-25T13:56:13.368Z,1.10
2019-04-25T13:58:44.166Z,1.20
2019-04-25T14:01:17.325Z,1.05
2019-04-25T14:03:46.631Z,1.37
2019-04-25T14:06:21.266Z,1.27
2019-04-25T14:08:50.481Z,1.10
2019-04-25T14:11:20.571Z,1.27
2019-04-25T14:13:50.793Z,1.30
2019-04-25T14:16:43.373Z,1.10
2019-04-25T14:19:34.886Z,1.30
2019-04-25T14:22:04.934Z,1.10
2019-04-25T14:24:35.789Z,1.22
2019-04-25T14:27:05.239Z,1.17
2019-04-25T14:29:34.796Z,1.00
2019-04-25T14:32:07.816Z,1.12
2019-04-25T14:34:38.180Z,0.82
2019-04-25T14:37:07.731Z,1.32
2019-04-25T14:39:36.987Z,1.40
2019-04-25T14:42:06.412Z,1.30
2019-04-25T14:44:35.672Z,1.25
2019-04-25T14:47:05.851Z,1.42
2019-04-25T14:49:35.085Z,1.20
2019-04-25T14:52:04.718Z,1.30
2019-04-25T14:55:08.000Z,1.30
2019-04-25T14:57:37.306Z,1.30
2019-04-25T15:00:19.844Z,1.27
2019-04-25T15:02:49.073Z,1.40
2019-04-25T15:05:18.327Z,1.00
2019-04-25T15:07:48.303Z,1.50
2019-04-25T15:10:17.561Z,1.30
2019-04-25T15:12:47.251Z,1.55
2019-04-25T15:15:16.852Z,1.20
2019-04-25T15:17:47.676Z,1.30
2019-04-25T15:20:21.758Z,1.22
2019-04-25T15:22:51.778Z,1.27
2019-04-25T15:25:21.024Z,1.20
2019-04-25T15:27:50.616Z,1.02
2019-04-25T15:30:29.322Z,1.17
2019-04-25T15:32:58.536Z,1.30
2019-04-25T15:35:41.025Z,1.17
2019-04-25T15:38:14.549Z,1.20
2019-04-25T15:41:01.123Z,1.37
2019-04-25T15:43:52.240Z,1.30
2019-04-25T15:46:27.662Z,1.40
2019-04-25T15:48:56.702Z,1.30
2019-04-25T15:51:26.987Z,1.35
2019-04-25T15:53:56.225Z,1.50
2019-04-25T15:56:26.083Z,1.20
2019-04-25T15:58:55.256Z,1.40
2019-04-25T16:01:26.403Z,1.50
2019-04-25T16:03:56.876Z,1.40
2019-04-25T16:06:27.777Z,1.37
2019-04-25T16:08:57.034Z,1.53
2019-04-25T16:11:26.615Z,1.30
2019-04-25T16:13:55.867Z,1.40
2019-04-25T16:16:26.775Z,1.40
2019-04-25T16:18:58.423Z,1.22
2019-04-25T16:21:27.888Z,1.50
2019-04-25T16:23:57.110Z,1.12
2019-04-25T16:26:27.002Z,1.30
2019-04-25T16:28:57.146Z,1.10
2019-04-25T16:31:28.097Z,1.17
2019-04-25T16:33:58.644Z,1.10
2019-04-25T16:36:27.861Z,1.17
2019-04-25T16:38:57.111Z,1.40
2019-04-25T16:41:28.575Z,1.52
2019-04-25T16:44:02.862Z,1.20
2019-04-25T16:46:34.145Z,1.20
2019-04-25T16:49:03.441Z,1.32
2019-04-25T16:51:33.762Z,1.30
2019-04-25T16:54:03.032Z,1.30
2019-04-25T16:56:32.569Z,1.20
2019-04-25T16:59:02.362Z,1.47
2019-04-25T17:01:31.735Z,1.27
2019-04-25T17:04:00.941Z,1.45
2019-04-25T17:06:32.160Z,1.10
2019-04-25T17:09:01.421Z,1.07
2019-04-25T17:11:32.405Z,1.22
2019-04-25T17:14:16.389Z,1.20
2019-04-25T17:16:58.409Z,1.15
2019-04-25T17:19:40.587Z,0.93
2019-04-25T17:22:09.807Z,1.35
2019-04-25T17:24:39.286Z,1.50
2019-04-25T17:27:09.591Z,1.40
2019-04-25T17:29:40.097Z,1.50
2019-04-25T17:32:19.351Z,1.40
2019-04-25T17:35:14.464Z,1.40
2019-04-25T17:37:51.724Z,1.25
2019-04-25T17:40:24.890Z,1.30
2019-04-25T17:42:55.575Z,1.40
2019-04-25T17:45:29.599Z,1.50
2019-04-25T17:47:59.630Z,1.20
2019-04-25T17:50:29.120Z,1.63
2019-04-25T17:52:58.623Z,1.40
2019-04-25T17:55:35.090Z,1.50
2019-04-25T17:58:04.392Z,1.33
2019-04-25T18:00:39.968Z,1.40
2019-04-25T18:03:10.949Z,1.37
2019-04-25T18:05:41.542Z,1.63
2019-04-25T18:08:11.727Z,1.43
2019-04-25T18:10:41.931Z,1.73
2019-04-25T18:13:13.213Z,1.37
2019-04-25T18:16:01.015Z,1.53
2019-04-25T18:19:04.464Z,1.70
2019-04-25T18:21:38.517Z,1.60
2019-04-25T18:24:28.034Z,1.70
2019-04-25T18:27:07.839Z,1.70
2019-04-25T18:29:37.429Z,1.60
2019-04-25T18:32:07.822Z,1.70
2019-04-25T18:34:43.152Z,1.73
2019-04-25T18:37:37.693Z,1.60
2019-04-25T18:40:25.318Z,1.80
2019-04-25T18:43:05.629Z,1.60
2019-04-25T18:45:38.335Z,1.77
2019-04-25T18:48:08.186Z,1.60
2019-04-25T18:50:38.545Z,1.60
2019-04-25T18:53:26.997Z,1.60
2019-04-25T18:56:11.652Z,1.87
2019-04-25T18:59:05.628Z,1.80
2019-04-25T19:02:02.718Z,1.70
2019-04-25T19:04:39.820Z,1.80
2019-04-25T19:07:21.929Z,1.83
2019-04-25T19:09:43.726Z,1.80
2019-04-25T19:12:12.949Z,1.83
2019-04-25T19:14:43.147Z,1.80
2019-04-25T19:17:14.199Z,1.83
2019-04-25T19:19:44.288Z,1.70
2019-04-25T19:22:14.433Z,1.80
2019-04-25T19:24:45.904Z,1.60
2019-04-25T19:27:23.595Z,1.70
2019-04-25T19:29:46.235Z,1.60
2019-04-25T19:32:15.498Z,1.60
2019-04-25T19:34:44.764Z,1.80
2019-04-25T19:37:15.489Z,1.83
2019-04-25T19:39:49.999Z,1.70
2019-04-25T19:42:28.191Z,1.50
2019-04-25T19:44:57.471Z,1.80
2019-04-25T19:47:26.846Z,1.67
2019-04-25T19:49:56.081Z,1.70
2019-04-25T19:52:25.338Z,1.40
2019-04-25T19:54:55.494Z,2.37
2019-04-25T19:57:25.247Z,1.70
2019-04-25T19:59:54.490Z,1.80
2019-04-25T20:02:37.694Z,1.70
2019-04-25T20:05:15.095Z,1.60
2019-04-25T20:07:49.527Z,2.07
2019-04-25T20:10:31.532Z,2.00
2019-04-25T20:13:00.772Z,2.03
2019-04-25T20:15:30.309Z,2.07
2019-04-25T20:17:59.400Z,2.00
2019-04-25T20:20:31.589Z,4.27
2019-04-25T20:23:01.574Z,2.30
2019-04-25T20:25:30.919Z,1.93
2019-04-25T20:28:00.228Z,1.90
2019-04-25T20:30:29.461Z,2.00
2019-04-25T20:32:59.088Z,1.90
2019-04-25T20:35:29.223Z,2.43
2019-04-25T20:37:58.839Z,2.37
2019-04-25T20:40:28.049Z,1.90
2019-04-25T20:42:57.639Z,1.90
2019-04-25T20:45:26.867Z,1.90
2019-04-25T20:47:56.923Z,2.03
2019-04-25T20:50:26.937Z,2.10
2019-04-25T20:53:03.326Z,1.80
2019-04-25T20:55:32.555Z,1.90
2019-04-25T20:58:04.453Z,1.90
2019-04-25T21:00:40.513Z,3.43
2019-04-25T21:03:10.171Z,2.70
2019-04-25T21:05:39.512Z,2.33
2019-04-25T21:08:08.772Z,2.30
2019-04-25T21:10:38.425Z,2.20
2019-04-25T21:13:11.021Z,2.40
2019-04-25T21:15:52.096Z,2.20
2019-04-25T21:18:30.775Z,4.27
2019-04-25T21:21:01.308Z,4.23
2019-04-25T21:23:32.380Z,2.90
2019-04-25T21:26:03.956Z,2.77
2019-04-25T21:28:34.307Z,2.40
2019-04-25T21:31:03.565Z,2.10
2019-04-25T21:33:32.854Z,2.00
2019-04-25T21:36:02.590Z,2.00
2019-04-25T21:38:32.233Z,2.20
2019-04-25T21:41:26.991Z,2.13
2019-04-25T21:44:02.273Z,2.00
2019-04-25T21:46:33.147Z,2.03
2019-04-25T21:49:03.137Z,2.50
2019-04-25T21:51:33.250Z,4.17
2019-04-25T21:54:05.429Z,4.43
2019-04-25T21:56:35.381Z,2.50
2019-04-25T21:59:04.822Z,2.10
2019-04-25T22:01:39.847Z,2.07
2019-04-25T22:04:09.086Z,2.10
2019-04-25T22:06:39.178Z,2.20
2019-04-25T22:09:12.915Z,2.03
2019-04-25T22:11:42.440Z,2.10
2019-04-25T22:14:12.610Z,2.10
2019-04-25T22:16:42.011Z,2.00
2019-04-25T22:19:12.538Z,2.17
2019-04-25T22:21:43.647Z,2.00
2019-04-25T22:24:14.711Z,2.07
2019-04-25T22:26:44.206Z,2.23
2019-04-25T22:29:15.095Z,2.33
2019-04-25T22:31:52.131Z,2.30
2019-04-25T22:34:30.321Z,2.10
2019-04-25T22:36:59.961Z,2.50
2019-04-25T22:39:29.459Z,2.70
2019-04-25T22:41:59.578Z,2.40
2019-04-25T22:44:30.263Z,2.30
2019-04-25T22:47:00.821Z,3.00
2019-04-25T22:49:30.612Z,2.57
2019-04-25T22:52:02.120Z,2.40
2019-04-25T22:54:32.721Z,2.07
2019-04-25T22:57:02.630Z,2.07
2019-04-25T22:59:32.196Z,2.20
2019-04-25T23:02:12.013Z,2.10
2019-04-25T23:05:09.460Z,2.37
2019-04-25T23:07:35.808Z,2.10
2019-04-25T23:10:06.469Z,2.20
2019-04-25T23:12:36.884Z,2.43
2019-04-25T23:15:06.776Z,2.37
2019-04-25T23:17:36.189Z,2.20
2019-04-25T23:20:07.838Z,2.20
2019-04-25T23:22:37.491Z,2.17
2019-04-25T23:25:12.306Z,2.40
2019-04-25T23:27:52.548Z,2.27
2019-04-25T23:30:24.805Z,2.60
2019-04-25T23:32:54.043Z,2.40
2019-04-25T23:35:31.795Z,2.70
2019-04-25T23:37:54.781Z,2.53
2019-04-25T23:40:24.028Z,2.20
2019-04-25T23:42:55.040Z,2.50
2019-04-25T23:45:24.229Z,2.60
2019-04-25T23:48:03.702Z,2.20
2019-04-25T23:50:33.213Z,2.30
2019-04-25T23:53:02.596Z,2.20
2019-04-25T23:55:32.173Z,2.20
2019-04-25T23:58:01.881Z,2.40
